Rainbow, California
Current Conditions -  °F | °C
As of 10:35 AM on Sunday 23 Nov 2014 (Local Time) from KL18 Reporting Station
Clear Clear  
Wind Chill: 70°   Ceiling: Unl
Heat Index: 70°   Visibility: 10mi
Dew Point: 37°   Wind: 10mph
Humidity: 31%   Direction: 360°N
Pressure: 30.11"   Gusts: NA
Location:  33.3988°N, 117.264°W
Report Text: KL18 231835Z AUTO 36009KT 10SM CLR 21/03 A3011 RMK AO2
Loading
Personal Weather Stations






























Interactive Weather Map New forecast layout! Learn more

10-Day Weather Forecast

Advertisements
Track Severe Weather on mobile